• Join FlightAware (Why Join?)
  • Login
  • US Flag GB Flag 
12:04 EDT


 

Airport Tracker/Info


-or-


 

Live Flight TrackerFlight Track Log ✈ FLG3432 ✈ 07-May-2013 ✈ KALB - KMSP

Flight Track Log - Related Links

Times and Time Zones

All times are in EDT time to prevent confusion due to time zone crossing. See the FLG3432 flight status page for this flight to view local times or setup timezone preferences in your user account.

Time Position Orientation Groundspeed Altitude Reporting Facility
EDT Latitude Longitude Course Direction KTS MPH feet Rate Location/Type
06:38 42.7256 -73.8053 284° West 156 180 1,300  Level Boston Center
06:39 42.6961 -73.8411 222° Southwest 206 237 2,900 1,560 Climbing Boston Center
06:40 42.7492 -73.9161 314° West 263 303 5,100 2,160 Climbing Boston Center
06:41 42.8414 -74.3817 283° West  Level FlightAware Approximate
06:41 42.8025 -73.9881 315° West 268 308 7,800  Level Boston Center
06:42 42.8661 -74.5296 283° West  Level FlightAware Approximate
06:42 42.8619 -74.0631 317° Northwest 273 314 10,600  Level Boston Center
06:43 42.9025 -74.6711 284° West  Level FlightAware Approximate
06:43 42.9356 -74.1558 317° Northwest 298 343 12,400  Level Boston Center
06:44 43.0031 -74.2372 319° Northwest 350 403 14,500 2,160 Climbing Boston Center
06:45 43.0847 -74.3419 317° Northwest 361 415 16,800 1,920 Climbing Boston Center
06:46 43.1542 -74.4322 317° Northwest 378 435 18,400 1,860 Climbing Boston Center
06:47 43.2397 -74.5464 316° Northwest 378 435 20,500 1,920 Climbing Boston Center
06:48 43.3211 -74.6519 317° Northwest 389 448 22,300 1,500 Climbing Boston Center
06:50 43.3831 -74.7769 304° West 394 453 23,800 1,440 Climbing Boston Center
06:51 43.4442 -74.9453 297° West 405 466 25,500 1,380 Climbing Boston Center
06:52 43.4678 -75.1008 282° West 410 472 26,600 1,200 Climbing Boston Center
06:53 43.4264 -75.2589 250° West 415 478 28,000 1,320 Climbing Boston Center
06:54 43.3853 -75.4028 249° West 429 494 29,300 1,320 Climbing Boston Center
06:55 43.3436 -75.5550 249° West 434 499 30,700 1,320 Climbing Boston Center
06:56 43.3019 -75.7069 249° West 439 505 32,000 1,320 Climbing Boston Center
06:57 43.2600 -75.8589 249° West 439 505 33,400 1,080 Climbing Boston Center
06:59 43.1669 -76.1936 249° West 424 488 35,400 780 Climbing Cleveland Center
07:00 43.1478 -76.3514 261° West 419 482 36,000 300 Climbing Cleveland Center
07:01 43.1328 -76.5175 263° West 424 488 36,000  Level Cleveland Center
07:02 43.1197 -76.6806 264° West 436 502 36,000  Level Cleveland Center
07:03 43.1189 -76.8456 270° West 442 509 36,000  Level Cleveland Center
07:04 43.1469 -77.0089 283° West 437 503 36,000  Level Cleveland Center
07:05 43.1747 -77.1697 283° West 442 509 36,000  Level Cleveland Center
07:06 43.2022 -77.3306 283° West 442 509 36,000  Level Cleveland Center
07:07 43.2319 -77.4944 284° West 447 514 36,000  Level Cleveland Center
07:08 43.2589 -77.6556 283° West 447 514 36,000  Level Cleveland Center
07:09 43.2878 -77.8167 284° West 447 514 36,000  Level Cleveland Center
07:10 43.3144 -77.9783 283° West 447 514 36,000  Level Cleveland Center
07:11 43.3431 -78.1425 284° West 447 514 36,000  Level Cleveland Center
07:12 43.3714 -78.3042 284° West 447 514 36,000  Level Cleveland Center
07:13 43.3975 -78.4692 282° West 447 514 36,000  Level Cleveland Center
07:14 43.4253 -78.6339 283° West 447 514 36,000  Level Cleveland Center
07:14 43.4333 -78.6667 289° West 440 506 36,000  Level Toronto Center
07:15 43.4500 -78.8333 278° West 440 506 36,000  Level Toronto Center
07:16 43.4833 -78.9833 287° West 440 506 36,000  Level Toronto Center
07:17 43.5000 -79.1667 277° West 440 506 36,000  Level Toronto Center
07:18 43.5333 -79.3333 285° West 450 518 36,000  Level Toronto Center
07:20 43.5833 -79.6833 281° West 450 518 36,000  Level Toronto Center
07:21 43.6000 -79.8333 279° West 450 518 36,000  Level Toronto Center
07:22 43.6333 -80.0000 286° West 450 518 36,000  Level Toronto Center
07:23 43.6500 -80.1833 277° West 450 518 36,000  Level Toronto Center
07:24 43.6833 -80.3500 286° West 450 518 36,000  Level Toronto Center
07:25 43.7167 -80.5167 286° West 450 518 36,000  Level Toronto Center
07:26 43.7333 -80.7000 277° West 450 518 36,000  Level Toronto Center
07:27 43.7500 -80.8500 279° West 450 518 36,000  Level Toronto Center
07:28 43.7667 -81.0167 278° West 450 518 36,000  Level Toronto Center
07:29 43.8000 -81.1833 286° West 450 518 36,000  Level Toronto Center
07:30 43.8167 -81.3500 278° West 450 518 36,000  Level Toronto Center
07:31 43.8500 -81.5333 284° West 450 518 36,000  Level Toronto Center
07:32 43.8667 -81.6833 279° West 450 518 36,000  Level Toronto Center
07:33 43.9000 -81.8833 283° West 450 518 36,000  Level Toronto Center
07:34 43.9000 -82.0333 270° West 450 518 36,000  Level Toronto Center
07:35 43.9333 -82.2333 283° West 450 518 36,000  Level Toronto Center
07:36 43.9667 -82.3833 287° West 450 518 36,000  Level Toronto Center
07:37 43.9831 -82.5050 281° West 453 521 36,000  Level Minneapolis Center
07:38 44.0072 -82.7103 279° West 451 519 36,000  Level Minneapolis Center
07:39 44.0336 -82.9169 280° West 453 521 36,000  Level Minneapolis Center
07:40 44.0542 -83.0892 279° West 452 520 36,000  Level Minneapolis Center
07:41 44.0792 -83.2589 282° West 451 519 36,000  Level Minneapolis Center
07:42 44.0983 -83.4336 279° West 453 521 36,000  Level Minneapolis Center
07:43 44.1203 -83.6053 280° West 453 521 36,000  Level Minneapolis Center
07:44 44.1439 -83.8139 279° West 454 522 36,000  Level Minneapolis Center
07:45 44.1625 -83.9878 279° West 455 524 36,000  Level Minneapolis Center
07:46 44.1825 -84.1631 279° West 457 526 36,000  Level Minneapolis Center
07:47 44.2067 -84.3361 281° West 456 525 36,000  Level Minneapolis Center
07:48 44.2289 -84.5100 280° West 457 526 36,000  Level Minneapolis Center
07:49 44.2522 -84.6836 281° West 456 525 36,000  Level Minneapolis Center
07:50 44.2747 -84.8572 280° West 456 525 36,000  Level Minneapolis Center
07:51 44.2950 -85.0325 279° West 457 526 36,000  Level Minneapolis Center
07:52 44.3164 -85.2086 280° West 460 529 36,000  Level Minneapolis Center
07:53 44.3378 -85.3839 280° West 459 528 36,000  Level Minneapolis Center
07:54 44.3578 -85.5592 279° West 457 526 36,000  Level Minneapolis Center
07:55 44.3831 -85.7703 280° West 458 527 36,000  Level Minneapolis Center
07:56 44.4033 -85.9469 279° West 457 526 36,000  Level Minneapolis Center
07:58 44.4239 -86.1244 279° West 459 528 36,000  Level Minneapolis Center
07:59 44.4433 -86.3019 279° West 459 528 36,000  Level Minneapolis Center
08:00 44.4628 -86.4800 279° West 459 528 36,000  Level Minneapolis Center
08:01 44.4831 -86.6575 279° West 460 529 36,000  Level Minneapolis Center
08:02 44.5008 -86.8356 278° West 460 529 36,000  Level Minneapolis Center
08:03 44.5211 -87.0133 279° West 463 533 36,000  Level Minneapolis Center
08:04 44.5394 -87.1917 278° West 461 531 36,000  Level Minneapolis Center
08:05 44.5575 -87.3697 278° West 462 532 36,000  Level Minneapolis Center
08:06 44.5792 -87.5839 278° West 462 532 36,000  Level Minneapolis Center
08:07 44.6008 -87.7986 278° West 462 532 36,000  Level Minneapolis Center
08:08 44.6144 -87.9611 277° West 458 527 36,000  Level Minneapolis Center
08:09 44.6325 -88.1403 278° West 463 533 36,000  Level Minneapolis Center
08:10 44.6483 -88.3197 277° West 464 534 36,000  Level Minneapolis Center
08:11 44.6692 -88.5294 278° West 465 535 36,000  Level Minneapolis Center
08:12 44.6844 -88.7100 277° West 467 537 36,000  Level Minneapolis Center
08:13 44.7003 -88.8897 277° West 465 535 36,000  Level Minneapolis Center
08:14 44.7161 -89.0697 277° West 465 535 36,000 -300 Level Minneapolis Center
08:15 44.7317 -89.2506 277° West 467 537 35,400 -840 Descending Minneapolis Center
08:16 44.7469 -89.4294 277° West 464 534 34,400 -1,080 Descending Minneapolis Center
08:17 44.7636 -89.6364 277° West 459 528 33,200 -1,080 Descending Minneapolis Center
08:18 44.7775 -89.8144 276° West 457 526 32,200 -600 Descending Minneapolis Center
08:19 44.7917 -89.9944 276° West 462 532 32,000 -120 Descending Minneapolis Center
08:20 44.8058 -90.1778 276° West 468 539 32,000  Level Minneapolis Center
08:21 44.8186 -90.3594 276° West 469 540 32,000  Level Minneapolis Center
08:22 44.8314 -90.5133 277° West 472 543 32,000  Level Minneapolis Center
08:23 44.8475 -90.7383 276° West 471 542 32,000 -60 Level Minneapolis Center
08:24 44.8597 -90.9450 275° West 474 545 31,900 -1,020 Descending Minneapolis Center
08:25 44.8733 -91.1300 276° West 475 547 29,900 -1,860 Descending Minneapolis Center
08:26 44.8850 -91.3078 275° West 466 536 28,100 -1,620 Descending Minneapolis Center
08:27 44.8975 -91.4775 276° West 447 514 26,600 -2,040 Descending Minneapolis Center
08:29 44.9275 -91.6386 285° West 430 495 23,900 -3,120 Descending Minneapolis Center
08:30 44.9558 -91.7908 285° West 412 474 20,300 -3,420 Descending Minneapolis Center
08:31 44.9847 -91.9353 286° West 391 450 16,900 -3,300 Descending Minneapolis Center
08:32 45.0147 -92.1006 284° West 361 415 13,500 -2,760 Descending Minneapolis Center
08:33 45.0383 -92.2297 285° West 342 394 11,300 -1,320 Descending Minneapolis Center
08:34 45.0369 -92.3611 269° West 341 392 10,900 -960 Descending Minneapolis Center
08:35 45.0175 -92.4889 258° West 334 384 9,400 -900 Descending Minneapolis Center
08:36 44.9925 -92.6258 256° West 291 335 8,900 -660 Descending Minneapolis Center
08:37 44.9306 -92.6411 190° South 232 267 8,000 -960 Descending Minneapolis Center
08:38 44.8647 -92.6794 202° Southwest 220 253 7,000 -1,020 Descending Minneapolis Center
08:39 44.8172 -92.7372 221° Southwest 225 259 6,000 -1,140 Descending Minneapolis Center
08:40 44.8042 -92.8139 257° West 223 257 4,700 -1,020 Descending Minneapolis Center
08:41 44.8144 -92.9017 279° West 226 260 4,000 -540 Descending Minneapolis Center
08:42 44.8203 -92.9875 276° West 223 257 3,600 -420 Descending Minneapolis Center